sensor_id;sensor_type;location;lat;lon;timestamp;P1;durP1;ratioP1;P2;durP2;ratioP2
15812;SDS011;8007;51.404;6.304;2023-09-18T00:00:16;11.33;;;9.33;;
15812;SDS011;8007;51.404;6.304;2023-09-18T00:02:21;10.13;;;8.63;;
15812;SDS011;8007;51.404;6.304;2023-09-18T00:04:24;14.20;;;8.97;;
15812;SDS011;8007;51.404;6.304;2023-09-18T00:06:26;11.23;;;8.97;;
15812;SDS011;8007;51.404;6.304;2023-09-18T00:08:31;11.67;;;8.80;;
15812;SDS011;8007;51.404;6.304;2023-09-18T00:10:35;10.47;;;8.57;;
15812;SDS011;8007;51.404;6.304;2023-09-18T00:12:37;11.63;;;8.23;;
15812;SDS011;8007;51.404;6.304;2023-09-18T00:14:40;10.90;;;8.50;;
15812;SDS011;8007;51.404;6.304;2023-09-18T00:16:42;11.73;;;8.33;;
15812;SDS011;8007;51.404;6.304;2023-09-18T00:18:45;9.97;;;8.03;;
15812;SDS011;8007;51.404;6.304;2023-09-18T00:20:47;9.20;;;8.00;;
15812;SDS011;8007;51.404;6.304;2023-09-18T00:22:52;10.13;;;8.33;;
15812;SDS011;8007;51.404;6.304;2023-09-18T00:24:54;10.23;;;8.13;;
15812;SDS011;8007;51.404;6.304;2023-09-18T00:26:58;9.20;;;8.27;;
15812;SDS011;8007;51.404;6.304;2023-09-18T00:29:01;9.73;;;8.50;;
15812;SDS011;8007;51.404;6.304;2023-09-18T00:31:02;11.03;;;8.20;;
15812;SDS011;8007;51.404;6.304;2023-09-18T00:33:04;12.30;;;8.10;;
15812;SDS011;8007;51.404;6.304;2023-09-18T00:35:07;12.70;;;8.33;;
15812;SDS011;8007;51.404;6.304;2023-09-18T00:37:09;10.10;;;7.53;;
15812;SDS011;8007;51.404;6.304;2023-09-18T00:39:12;10.47;;;8.00;;
15812;SDS011;8007;51.404;6.304;2023-09-18T00:41:15;11.17;;;7.57;;
15812;SDS011;8007;51.404;6.304;2023-09-18T00:43:19;11.30;;;7.73;;
15812;SDS011;8007;51.404;6.304;2023-09-18T00:45:21;8.30;;;7.50;;
15812;SDS011;8007;51.404;6.304;2023-09-18T00:47:23;10.10;;;7.60;;
15812;SDS011;8007;51.404;6.304;2023-09-18T00:49:26;12.37;;;7.97;;
15812;SDS011;8007;51.404;6.304;2023-09-18T00:51:28;11.07;;;7.70;;
15812;SDS011;8007;51.404;6.304;2023-09-18T00:53:30;10.40;;;7.60;;
15812;SDS011;8007;51.404;6.304;2023-09-18T00:55:33;10.00;;;7.50;;
15812;SDS011;8007;51.404;6.304;2023-09-18T00:57:34;9.37;;;7.20;;
15812;SDS011;8007;51.404;6.304;2023-09-18T01:01:42;10.33;;;7.27;;
15812;SDS011;8007;51.404;6.304;2023-09-18T01:03:44;10.73;;;7.30;;
15812;SDS011;8007;51.404;6.304;2023-09-18T01:05:46;10.87;;;6.90;;
15812;SDS011;8007;51.404;6.304;2023-09-18T01:07:48;10.20;;;8.23;;
15812;SDS011;8007;51.404;6.304;2023-09-18T01:09:51;10.43;;;7.00;;
15812;SDS011;8007;51.404;6.304;2023-09-18T01:11:54;11.33;;;7.43;;
15812;SDS011;8007;51.404;6.304;2023-09-18T01:14:03;11.33;;;7.53;;
15812;SDS011;8007;51.404;6.304;2023-09-18T01:16:13;9.57;;;6.90;;
15812;SDS011;8007;51.404;6.304;2023-09-18T01:18:18;11.57;;;7.83;;
15812;SDS011;8007;51.404;6.304;2023-09-18T01:20:21;16.40;;;7.27;;
15812;SDS011;8007;51.404;6.304;2023-09-18T01:22:23;10.70;;;7.90;;
15812;SDS011;8007;51.404;6.304;2023-09-18T01:24:27;10.40;;;7.53;;
15812;SDS011;8007;51.404;6.304;2023-09-18T01:26:28;8.00;;;7.20;;
15812;SDS011;8007;51.404;6.304;2023-09-18T01:28:31;10.53;;;7.43;;
15812;SDS011;8007;51.404;6.304;2023-09-18T01:30:33;10.13;;;7.70;;
15812;SDS011;8007;51.404;6.304;2023-09-18T01:32:34;13.57;;;7.83;;
15812;SDS011;8007;51.404;6.304;2023-09-18T01:34:40;10.97;;;7.33;;
15812;SDS011;8007;51.404;6.304;2023-09-18T01:36:44;12.50;;;7.70;;
15812;SDS011;8007;51.404;6.304;2023-09-18T01:38:46;9.73;;;7.50;;
15812;SDS011;8007;51.404;6.304;2023-09-18T01:40:50;8.93;;;8.00;;
15812;SDS011;8007;51.404;6.304;2023-09-18T01:42:54;11.37;;;7.67;;
15812;SDS011;8007;51.404;6.304;2023-09-18T01:44:56;9.83;;;7.43;;
15812;SDS011;8007;51.404;6.304;2023-09-18T01:46:59;11.17;;;7.60;;
15812;SDS011;8007;51.404;6.304;2023-09-18T01:49:03;9.23;;;7.10;;
15812;SDS011;8007;51.404;6.304;2023-09-18T01:51:06;13.43;;;8.20;;
15812;SDS011;8007;51.404;6.304;2023-09-18T01:53:09;9.10;;;7.53;;
15812;SDS011;8007;51.404;6.304;2023-09-18T01:55:11;10.27;;;7.37;;
15812;SDS011;8007;51.404;6.304;2023-09-18T01:57:15;17.40;;;8.03;;
15812;SDS011;8007;51.404;6.304;2023-09-18T01:59:16;12.47;;;7.47;;
15812;SDS011;8007;51.404;6.304;2023-09-18T02:01:19;9.60;;;7.43;;
15812;SDS011;8007;51.404;6.304;2023-09-18T02:03:21;10.30;;;7.43;;
15812;SDS011;8007;51.404;6.304;2023-09-18T02:05:24;9.97;;;7.93;;
15812;SDS011;8007;51.404;6.304;2023-09-18T02:07:26;14.07;;;7.70;;
15812;SDS011;8007;51.404;6.304;2023-09-18T02:09:28;12.20;;;7.60;;
15812;SDS011;8007;51.404;6.304;2023-09-18T02:11:31;12.87;;;8.13;;
15812;SDS011;8007;51.404;6.304;2023-09-18T02:13:33;12.20;;;7.73;;
15812;SDS011;8007;51.404;6.304;2023-09-18T02:15:36;9.37;;;7.57;;
15812;SDS011;8007;51.404;6.304;2023-09-18T02:17:39;10.50;;;7.60;;
15812;SDS011;8007;51.404;6.304;2023-09-18T02:19:41;10.03;;;7.67;;
15812;SDS011;8007;51.404;6.304;2023-09-18T02:21:44;11.57;;;8.23;;
15812;SDS011;8007;51.404;6.304;2023-09-18T02:23:48;9.00;;;7.73;;
15812;SDS011;8007;51.404;6.304;2023-09-18T02:25:55;12.13;;;7.70;;
15812;SDS011;8007;51.404;6.304;2023-09-18T02:27:58;10.73;;;7.65;;
15812;SDS011;8007;51.404;6.304;2023-09-18T02:30:01;10.70;;;8.37;;
15812;SDS011;8007;51.404;6.304;2023-09-18T02:32:04;9.27;;;7.20;;
15812;SDS011;8007;51.404;6.304;2023-09-18T02:34:07;11.00;;;7.43;;
15812;SDS011;8007;51.404;6.304;2023-09-18T02:36:09;11.20;;;7.50;;
15812;SDS011;8007;51.404;6.304;2023-09-18T02:38:12;11.20;;;8.30;;
15812;SDS011;8007;51.404;6.304;2023-09-18T02:40:14;9.20;;;7.80;;
15812;SDS011;8007;51.404;6.304;2023-09-18T02:42:16;12.30;;;7.97;;
15812;SDS011;8007;51.404;6.304;2023-09-18T02:44:19;10.70;;;7.30;;
15812;SDS011;8007;51.404;6.304;2023-09-18T02:46:22;10.13;;;8.27;;
15812;SDS011;8007;51.404;6.304;2023-09-18T02:48:25;12.37;;;7.97;;
15812;SDS011;8007;51.404;6.304;2023-09-18T02:50:27;12.03;;;7.80;;
15812;SDS011;8007;51.404;6.304;2023-09-18T02:52:29;11.63;;;8.00;;
15812;SDS011;8007;51.404;6.304;2023-09-18T02:54:34;11.23;;;7.73;;
15812;SDS011;8007;51.404;6.304;2023-09-18T02:56:36;10.60;;;8.07;;
15812;SDS011;8007;51.404;6.304;2023-09-18T02:58:39;12.60;;;8.63;;
15812;SDS011;8007;51.404;6.304;2023-09-18T03:00:40;13.47;;;8.73;;
15812;SDS011;8007;51.404;6.304;2023-09-18T03:02:45;10.13;;;8.47;;
15812;SDS011;8007;51.404;6.304;2023-09-18T03:04:47;12.00;;;8.30;;
15812;SDS011;8007;51.404;6.304;2023-09-18T03:06:50;14.83;;;7.90;;
15812;SDS011;8007;51.404;6.304;2023-09-18T03:08:52;9.33;;;7.47;;
15812;SDS011;8007;51.404;6.304;2023-09-18T03:10:55;12.00;;;7.77;;
15812;SDS011;8007;51.404;6.304;2023-09-18T03:12:57;11.00;;;7.67;;
15812;SDS011;8007;51.404;6.304;2023-09-18T03:15:00;16.77;;;8.37;;
15812;SDS011;8007;51.404;6.304;2023-09-18T03:17:04;12.83;;;8.30;;
15812;SDS011;8007;51.404;6.304;2023-09-18T03:19:07;14.23;;;9.07;;
15812;SDS011;8007;51.404;6.304;2023-09-18T03:21:10;11.60;;;8.37;;
15812;SDS011;8007;51.404;6.304;2023-09-18T03:23:12;14.00;;;8.50;;
15812;SDS011;8007;51.404;6.304;2023-09-18T03:25:15;11.80;;;8.70;;
15812;SDS011;8007;51.404;6.304;2023-09-18T03:27:17;12.57;;;8.37;;
15812;SDS011;8007;51.404;6.304;2023-09-18T03:29:19;13.67;;;8.50;;
15812;SDS011;8007;51.404;6.304;2023-09-18T03:31:22;15.73;;;9.23;;
15812;SDS011;8007;51.404;6.304;2023-09-18T03:33:24;17.13;;;8.73;;
15812;SDS011;8007;51.404;6.304;2023-09-18T03:35:30;10.53;;;8.23;;
15812;SDS011;8007;51.404;6.304;2023-09-18T03:37:33;12.17;;;8.73;;
15812;SDS011;8007;51.404;6.304;2023-09-18T03:39:35;11.63;;;8.07;;
15812;SDS011;8007;51.404;6.304;2023-09-18T03:41:37;14.20;;;8.20;;
15812;SDS011;8007;51.404;6.304;2023-09-18T03:43:40;16.10;;;8.03;;
15812;SDS011;8007;51.404;6.304;2023-09-18T03:45:42;12.00;;;7.63;;
15812;SDS011;8007;51.404;6.304;2023-09-18T03:47:44;12.53;;;7.77;;
15812;SDS011;8007;51.404;6.304;2023-09-18T03:49:50;13.57;;;8.67;;
15812;SDS011;8007;51.404;6.304;2023-09-18T03:51:53;10.87;;;7.40;;
15812;SDS011;8007;51.404;6.304;2023-09-18T03:53:56;12.23;;;7.53;;
15812;SDS011;8007;51.404;6.304;2023-09-18T03:55:57;9.70;;;7.83;;
15812;SDS011;8007;51.404;6.304;2023-09-18T03:58:00;13.97;;;7.57;;
15812;SDS011;8007;51.404;6.304;2023-09-18T04:00:03;12.23;;;7.13;;
15812;SDS011;8007;51.404;6.304;2023-09-18T04:02:07;11.20;;;7.63;;
15812;SDS011;8007;51.404;6.304;2023-09-18T04:04:09;12.67;;;7.10;;
15812;SDS011;8007;51.404;6.304;2023-09-18T04:06:12;13.43;;;7.30;;
15812;SDS011;8007;51.404;6.304;2023-09-18T04:08:15;10.73;;;6.87;;
15812;SDS011;8007;51.404;6.304;2023-09-18T04:10:18;9.07;;;6.13;;
15812;SDS011;8007;51.404;6.304;2023-09-18T04:12:23;9.67;;;5.97;;
15812;SDS011;8007;51.404;6.304;2023-09-18T04:14:25;8.70;;;5.77;;
15812;SDS011;8007;51.404;6.304;2023-09-18T04:16:26;8.57;;;5.83;;
15812;SDS011;8007;51.404;6.304;2023-09-18T04:18:30;10.93;;;5.70;;
15812;SDS011;8007;51.404;6.304;2023-09-18T04:20:33;7.13;;;5.43;;
15812;SDS011;8007;51.404;6.304;2023-09-18T04:22:41;7.67;;;5.80;;
15812;SDS011;8007;51.404;6.304;2023-09-18T04:24:46;12.20;;;5.90;;
15812;SDS011;8007;51.404;6.304;2023-09-18T04:26:49;11.27;;;5.63;;
15812;SDS011;8007;51.404;6.304;2023-09-18T04:28:52;11.57;;;6.50;;
15812;SDS011;8007;51.404;6.304;2023-09-18T04:30:54;16.90;;;6.60;;
15812;SDS011;8007;51.404;6.304;2023-09-18T04:32:57;12.23;;;6.13;;
15812;SDS011;8007;51.404;6.304;2023-09-18T04:34:59;9.27;;;5.83;;
15812;SDS011;8007;51.404;6.304;2023-09-18T04:37:02;13.00;;;5.67;;
15812;SDS011;8007;51.404;6.304;2023-09-18T04:39:05;10.40;;;5.80;;
15812;SDS011;8007;51.404;6.304;2023-09-18T04:41:09;13.00;;;5.57;;
15812;SDS011;8007;51.404;6.304;2023-09-18T04:43:11;12.70;;;6.17;;
15812;SDS011;8007;51.404;6.304;2023-09-18T04:45:14;13.50;;;6.30;;
15812;SDS011;8007;51.404;6.304;2023-09-18T04:47:16;11.70;;;5.80;;
15812;SDS011;8007;51.404;6.304;2023-09-18T04:49:19;11.30;;;5.60;;
15812;SDS011;8007;51.404;6.304;2023-09-18T04:51:22;11.97;;;5.93;;
15812;SDS011;8007;51.404;6.304;2023-09-18T04:53:24;11.23;;;6.00;;
15812;SDS011;8007;51.404;6.304;2023-09-18T04:55:26;10.37;;;4.97;;
15812;SDS011;8007;51.404;6.304;2023-09-18T04:57:30;10.80;;;5.93;;
15812;SDS011;8007;51.404;6.304;2023-09-18T04:59:33;10.90;;;6.13;;
15812;SDS011;8007;51.404;6.304;2023-09-18T05:01:35;9.63;;;5.50;;
15812;SDS011;8007;51.404;6.304;2023-09-18T05:03:38;10.30;;;6.40;;
15812;SDS011;8007;51.404;6.304;2023-09-18T05:05:40;13.40;;;6.23;;
15812;SDS011;8007;51.404;6.304;2023-09-18T05:07:44;13.50;;;5.90;;
15812;SDS011;8007;51.404;6.304;2023-09-18T05:09:46;14.67;;;6.53;;
15812;SDS011;8007;51.404;6.304;2023-09-18T05:11:48;17.40;;;7.10;;
15812;SDS011;8007;51.404;6.304;2023-09-18T05:13:52;9.37;;;6.00;;
15812;SDS011;8007;51.404;6.304;2023-09-18T05:15:54;11.00;;;5.83;;
15812;SDS011;8007;51.404;6.304;2023-09-18T05:17:59;10.63;;;6.17;;
15812;SDS011;8007;51.404;6.304;2023-09-18T05:20:01;11.67;;;6.33;;
15812;SDS011;8007;51.404;6.304;2023-09-18T05:22:07;12.93;;;5.93;;
15812;SDS011;8007;51.404;6.304;2023-09-18T05:24:10;12.50;;;5.83;;
15812;SDS011;8007;51.404;6.304;2023-09-18T05:26:12;9.33;;;5.43;;
15812;SDS011;8007;51.404;6.304;2023-09-18T05:28:16;7.17;;;4.77;;
15812;SDS011;8007;51.404;6.304;2023-09-18T05:30:21;10.90;;;5.70;;
15812;SDS011;8007;51.404;6.304;2023-09-18T05:32:25;9.73;;;5.27;;
15812;SDS011;8007;51.404;6.304;2023-09-18T05:34:27;8.60;;;5.70;;
15812;SDS011;8007;51.404;6.304;2023-09-18T05:36:29;13.53;;;5.67;;
15812;SDS011;8007;51.404;6.304;2023-09-18T05:38:32;7.50;;;4.73;;
15812;SDS011;8007;51.404;6.304;2023-09-18T05:40:34;8.77;;;4.90;;
15812;SDS011;8007;51.404;6.304;2023-09-18T05:42:35;11.87;;;5.40;;
15812;SDS011;8007;51.404;6.304;2023-09-18T05:44:38;8.27;;;4.40;;
15812;SDS011;8007;51.404;6.304;2023-09-18T05:46:42;7.77;;;5.10;;
15812;SDS011;8007;51.404;6.304;2023-09-18T05:48:45;7.83;;;4.43;;
15812;SDS011;8007;51.404;6.304;2023-09-18T05:50:47;9.63;;;4.87;;
15812;SDS011;8007;51.404;6.304;2023-09-18T05:52:49;8.27;;;4.53;;
15812;SDS011;8007;51.404;6.304;2023-09-18T05:54:52;9.80;;;4.20;;
15812;SDS011;8007;51.404;6.304;2023-09-18T05:56:54;8.67;;;4.30;;
15812;SDS011;8007;51.404;6.304;2023-09-18T05:58:56;15.53;;;5.67;;
15812;SDS011;8007;51.404;6.304;2023-09-18T06:00:59;6.57;;;3.90;;
15812;SDS011;8007;51.404;6.304;2023-09-18T06:03:03;6.40;;;4.00;;
15812;SDS011;8007;51.404;6.304;2023-09-18T06:05:06;7.57;;;4.10;;
15812;SDS011;8007;51.404;6.304;2023-09-18T06:07:11;7.57;;;3.90;;
15812;SDS011;8007;51.404;6.304;2023-09-18T06:09:14;9.13;;;4.50;;
15812;SDS011;8007;51.404;6.304;2023-09-18T06:11:16;6.10;;;3.40;;
15812;SDS011;8007;51.404;6.304;2023-09-18T06:13:18;8.00;;;3.80;;
15812;SDS011;8007;51.404;6.304;2023-09-18T06:15:21;6.23;;;3.70;;
15812;SDS011;8007;51.404;6.304;2023-09-18T06:17:23;6.80;;;3.43;;
15812;SDS011;8007;51.404;6.304;2023-09-18T06:19:27;6.33;;;3.40;;
15812;SDS011;8007;51.404;6.304;2023-09-18T06:21:30;9.93;;;3.90;;
15812;SDS011;8007;51.404;6.304;2023-09-18T06:23:32;11.53;;;3.40;;
15812;SDS011;8007;51.404;6.304;2023-09-18T06:25:34;6.37;;;3.17;;
15812;SDS011;8007;51.404;6.304;2023-09-18T06:27:37;5.47;;;3.03;;
15812;SDS011;8007;51.404;6.304;2023-09-18T06:29:39;3.40;;;2.63;;
15812;SDS011;8007;51.404;6.304;2023-09-18T06:31:43;5.70;;;3.43;;
15812;SDS011;8007;51.404;6.304;2023-09-18T06:33:45;7.10;;;3.77;;
15812;SDS011;8007;51.404;6.304;2023-09-18T06:35:49;5.83;;;3.40;;
15812;SDS011;8007;51.404;6.304;2023-09-18T06:37:52;5.40;;;3.43;;
15812;SDS011;8007;51.404;6.304;2023-09-18T06:39:55;5.30;;;2.53;;
15812;SDS011;8007;51.404;6.304;2023-09-18T06:41:57;4.67;;;2.60;;
15812;SDS011;8007;51.404;6.304;2023-09-18T06:44:00;4.07;;;2.47;;
15812;SDS011;8007;51.404;6.304;2023-09-18T06:46:03;5.80;;;2.40;;
15812;SDS011;8007;51.404;6.304;2023-09-18T06:48:07;4.70;;;2.20;;
15812;SDS011;8007;51.404;6.304;2023-09-18T06:50:10;4.00;;;2.30;;
15812;SDS011;8007;51.404;6.304;2023-09-18T06:52:13;3.67;;;2.30;;
15812;SDS011;8007;51.404;6.304;2023-09-18T06:54:16;5.43;;;2.20;;
15812;SDS011;8007;51.404;6.304;2023-09-18T06:56:19;3.30;;;2.13;;
15812;SDS011;8007;51.404;6.304;2023-09-18T06:58:21;3.77;;;2.03;;
15812;SDS011;8007;51.404;6.304;2023-09-18T07:00:23;3.77;;;2.00;;
15812;SDS011;8007;51.404;6.304;2023-09-18T07:02:26;3.00;;;1.70;;
15812;SDS011;8007;51.404;6.304;2023-09-18T07:04:27;3.03;;;2.07;;
15812;SDS011;8007;51.404;6.304;2023-09-18T07:06:30;3.30;;;1.90;;
15812;SDS011;8007;51.404;6.304;2023-09-18T07:08:33;5.30;;;2.20;;
15812;SDS011;8007;51.404;6.304;2023-09-18T07:10:36;3.60;;;1.57;;
15812;SDS011;8007;51.404;6.304;2023-09-18T07:12:38;6.23;;;2.00;;
15812;SDS011;8007;51.404;6.304;2023-09-18T07:14:40;4.90;;;2.00;;
15812;SDS011;8007;51.404;6.304;2023-09-18T07:16:43;4.63;;;2.10;;
15812;SDS011;8007;51.404;6.304;2023-09-18T07:18:44;2.43;;;1.77;;
15812;SDS011;8007;51.404;6.304;2023-09-18T07:20:46;6.40;;;1.60;;
15812;SDS011;8007;51.404;6.304;2023-09-18T07:22:49;2.73;;;1.67;;
15812;SDS011;8007;51.404;6.304;2023-09-18T07:24:53;3.50;;;1.80;;
15812;SDS011;8007;51.404;6.304;2023-09-18T07:26:55;5.17;;;2.00;;
15812;SDS011;8007;51.404;6.304;2023-09-18T07:28:58;5.10;;;2.00;;
15812;SDS011;8007;51.404;6.304;2023-09-18T07:31:05;1.97;;;1.57;;
15812;SDS011;8007;51.404;6.304;2023-09-18T07:33:07;5.90;;;1.77;;
15812;SDS011;8007;51.404;6.304;2023-09-18T07:35:10;2.50;;;1.80;;
15812;SDS011;8007;51.404;6.304;2023-09-18T07:37:13;3.53;;;1.90;;
15812;SDS011;8007;51.404;6.304;2023-09-18T07:39:20;2.97;;;1.73;;
15812;SDS011;8007;51.404;6.304;2023-09-18T07:41:24;4.03;;;1.73;;
15812;SDS011;8007;51.404;6.304;2023-09-18T07:43:25;2.47;;;1.57;;
15812;SDS011;8007;51.404;6.304;2023-09-18T07:45:28;4.10;;;1.70;;
15812;SDS011;8007;51.404;6.304;2023-09-18T07:47:30;3.03;;;1.70;;
15812;SDS011;8007;51.404;6.304;2023-09-18T07:49:33;2.83;;;1.70;;
15812;SDS011;8007;51.404;6.304;2023-09-18T07:51:35;4.73;;;1.93;;
15812;SDS011;8007;51.404;6.304;2023-09-18T07:53:37;3.23;;;1.47;;
15812;SDS011;8007;51.404;6.304;2023-09-18T07:55:40;4.93;;;1.43;;
15812;SDS011;8007;51.404;6.304;2023-09-18T07:57:44;4.63;;;1.30;;
15812;SDS011;8007;51.404;6.304;2023-09-18T07:59:47;5.70;;;1.77;;
15812;SDS011;8007;51.404;6.304;2023-09-18T08:01:50;3.00;;;1.47;;
15812;SDS011;8007;51.404;6.304;2023-09-18T08:03:52;4.93;;;1.60;;
15812;SDS011;8007;51.404;6.304;2023-09-18T08:05:54;3.17;;;1.50;;
15812;SDS011;8007;51.404;6.304;2023-09-18T08:07:57;1.90;;;1.70;;
15812;SDS011;8007;51.404;6.304;2023-09-18T08:09:59;3.07;;;1.70;;
15812;SDS011;8007;51.404;6.304;2023-09-18T08:12:02;3.47;;;1.77;;
15812;SDS011;8007;51.404;6.304;2023-09-18T08:14:05;4.53;;;1.43;;
15812;SDS011;8007;51.404;6.304;2023-09-18T08:16:08;2.33;;;1.60;;
15812;SDS011;8007;51.404;6.304;2023-09-18T08:18:10;4.57;;;2.00;;
15812;SDS011;8007;51.404;6.304;2023-09-18T08:20:13;2.30;;;1.40;;
15812;SDS011;8007;51.404;6.304;2023-09-18T08:22:15;5.38;;;1.70;;
15812;SDS011;8007;51.404;6.304;2023-09-18T08:24:19;4.53;;;1.83;;
15812;SDS011;8007;51.404;6.304;2023-09-18T08:26:21;1.80;;;1.23;;
15812;SDS011;8007;51.404;6.304;2023-09-18T08:28:25;3.40;;;1.83;;
15812;SDS011;8007;51.404;6.304;2023-09-18T08:30:29;4.03;;;1.60;;
15812;SDS011;8007;51.404;6.304;2023-09-18T08:32:31;3.17;;;1.70;;
15812;SDS011;8007;51.404;6.304;2023-09-18T08:34:34;6.28;;;1.45;;
15812;SDS011;8007;51.404;6.304;2023-09-18T08:36:36;3.77;;;1.60;;
15812;SDS011;8007;51.404;6.304;2023-09-18T08:38:38;5.43;;;1.75;;
15812;SDS011;8007;51.404;6.304;2023-09-18T08:40:42;2.13;;;1.47;;
15812;SDS011;8007;51.404;6.304;2023-09-18T08:42:44;2.50;;;1.60;;
15812;SDS011;8007;51.404;6.304;2023-09-18T08:44:49;5.00;;;1.50;;
15812;SDS011;8007;51.404;6.304;2023-09-18T08:46:53;2.53;;;1.47;;
15812;SDS011;8007;51.404;6.304;2023-09-18T08:48:56;5.33;;;1.70;;
15812;SDS011;8007;51.404;6.304;2023-09-18T08:50:59;4.37;;;1.50;;
15812;SDS011;8007;51.404;6.304;2023-09-18T08:53:03;3.07;;;1.33;;
15812;SDS011;8007;51.404;6.304;2023-09-18T08:55:05;4.53;;;1.60;;
15812;SDS011;8007;51.404;6.304;2023-09-18T08:57:08;2.97;;;1.30;;
15812;SDS011;8007;51.404;6.304;2023-09-18T08:59:11;4.10;;;1.50;;
15812;SDS011;8007;51.404;6.304;2023-09-18T09:01:14;3.80;;;2.38;;
15812;SDS011;8007;51.404;6.304;2023-09-18T09:03:18;1.58;;;1.45;;
15812;SDS011;8007;51.404;6.304;2023-09-18T09:05:20;3.20;;;1.38;;
15812;SDS011;8007;51.404;6.304;2023-09-18T09:07:22;3.97;;;1.30;;
15812;SDS011;8007;51.404;6.304;2023-09-18T09:09:24;2.63;;;1.52;;
15812;SDS011;8007;51.404;6.304;2023-09-18T09:11:28;3.35;;;1.60;;
15812;SDS011;8007;51.404;6.304;2023-09-18T09:13:30;3.58;;;1.58;;
15812;SDS011;8007;51.404;6.304;2023-09-18T09:15:34;2.03;;;1.45;;
15812;SDS011;8007;51.404;6.304;2023-09-18T09:17:46;2.75;;;1.50;;
15812;SDS011;8007;51.404;6.304;2023-09-18T09:19:50;2.88;;;1.60;;
15812;SDS011;8007;51.404;6.304;2023-09-18T09:21:52;2.17;;;1.40;;
15812;SDS011;8007;51.404;6.304;2023-09-18T09:23:54;2.13;;;1.48;;
15812;SDS011;8007;51.404;6.304;2023-09-18T09:26:12;2.97;;;1.40;;
15812;SDS011;8007;51.404;6.304;2023-09-18T09:28:15;4.07;;;1.60;;
15812;SDS011;8007;51.404;6.304;2023-09-18T09:30:21;1.75;;;1.40;;
15812;SDS011;8007;51.404;6.304;2023-09-18T09:32:25;3.55;;;1.65;;
15812;SDS011;8007;51.404;6.304;2023-09-18T09:34:32;2.25;;;1.27;;
15812;SDS011;8007;51.404;6.304;2023-09-18T09:36:41;3.75;;;1.63;;
15812;SDS011;8007;51.404;6.304;2023-09-18T09:38:54;1.77;;;1.42;;
15812;SDS011;8007;51.404;6.304;2023-09-18T09:40:58;3.83;;;1.70;;
15812;SDS011;8007;51.404;6.304;2023-09-18T09:43:00;4.20;;;1.58;;
15812;SDS011;8007;51.404;6.304;2023-09-18T09:45:10;5.15;;;1.45;;
15812;SDS011;8007;51.404;6.304;2023-09-18T09:47:13;5.72;;;1.75;;
15812;SDS011;8007;51.404;6.304;2023-09-18T09:49:16;3.13;;;1.65;;
15812;SDS011;8007;51.404;6.304;2023-09-18T09:51:19;3.70;;;1.80;;
15812;SDS011;8007;51.404;6.304;2023-09-18T09:53:28;3.15;;;1.70;;
15812;SDS011;8007;51.404;6.304;2023-09-18T09:55:44;4.88;;;1.70;;
15812;SDS011;8007;51.404;6.304;2023-09-18T09:57:46;3.35;;;1.77;;
15812;SDS011;8007;51.404;6.304;2023-09-18T09:59:49;4.95;;;1.85;;
15812;SDS011;8007;51.404;6.304;2023-09-18T10:01:51;4.28;;;2.00;;
15812;SDS011;8007;51.404;6.304;2023-09-18T10:03:53;2.90;;;1.55;;
15812;SDS011;8007;51.404;6.304;2023-09-18T10:05:56;4.00;;;2.20;;
15812;SDS011;8007;51.404;6.304;2023-09-18T10:08:02;3.00;;;1.70;;
15812;SDS011;8007;51.404;6.304;2023-09-18T10:10:07;3.30;;;1.83;;
15812;SDS011;8007;51.404;6.304;2023-09-18T10:12:10;3.65;;;1.85;;
15812;SDS011;8007;51.404;6.304;2023-09-18T10:14:14;3.60;;;1.70;;
15812;SDS011;8007;51.404;6.304;2023-09-18T10:16:19;4.75;;;1.55;;
15812;SDS011;8007;51.404;6.304;2023-09-18T10:18:22;2.38;;;1.95;;
15812;SDS011;8007;51.404;6.304;2023-09-18T10:20:29;3.15;;;1.73;;
15812;SDS011;8007;51.404;6.304;2023-09-18T10:22:32;5.28;;;1.90;;
15812;SDS011;8007;51.404;6.304;2023-09-18T10:24:42;3.97;;;1.88;;
15812;SDS011;8007;51.404;6.304;2023-09-18T10:26:53;5.63;;;1.85;;
15812;SDS011;8007;51.404;6.304;2023-09-18T10:28:58;4.72;;;2.00;;
15812;SDS011;8007;51.404;6.304;2023-09-18T10:31:03;1.83;;;1.48;;
15812;SDS011;8007;51.404;6.304;2023-09-18T10:33:06;2.72;;;1.90;;
15812;SDS011;8007;51.404;6.304;2023-09-18T10:35:07;5.40;;;2.08;;
15812;SDS011;8007;51.404;6.304;2023-09-18T10:37:12;1.70;;;1.35;;
15812;SDS011;8007;51.404;6.304;2023-09-18T10:39:14;4.13;;;1.70;;
15812;SDS011;8007;51.404;6.304;2023-09-18T10:41:20;3.47;;;1.80;;
15812;SDS011;8007;51.404;6.304;2023-09-18T10:43:26;5.97;;;2.03;;
15812;SDS011;8007;51.404;6.304;2023-09-18T10:45:28;4.43;;;2.03;;
15812;SDS011;8007;51.404;6.304;2023-09-18T10:47:31;1.63;;;1.52;;
15812;SDS011;8007;51.404;6.304;2023-09-18T10:49:34;2.78;;;1.52;;
15812;SDS011;8007;51.404;6.304;2023-09-18T10:51:37;2.70;;;1.90;;
15812;SDS011;8007;51.404;6.304;2023-09-18T10:53:42;4.78;;;1.77;;
15812;SDS011;8007;51.404;6.304;2023-09-18T10:55:44;3.67;;;1.80;;
15812;SDS011;8007;51.404;6.304;2023-09-18T10:57:50;3.30;;;2.05;;
15812;SDS011;8007;51.404;6.304;2023-09-18T10:59:54;4.43;;;2.00;;
15812;SDS011;8007;51.404;6.304;2023-09-18T11:01:56;4.63;;;1.58;;
15812;SDS011;8007;51.404;6.304;2023-09-18T11:04:00;3.03;;;1.88;;
15812;SDS011;8007;51.404;6.304;2023-09-18T11:06:05;2.90;;;1.85;;
15812;SDS011;8007;51.404;6.304;2023-09-18T11:08:28;2.67;;;2.03;;
15812;SDS011;8007;51.404;6.304;2023-09-18T11:10:33;3.08;;;1.80;;
15812;SDS011;8007;51.404;6.304;2023-09-18T11:12:44;3.03;;;2.08;;
15812;SDS011;8007;51.404;6.304;2023-09-18T11:14:47;4.28;;;2.72;;
15812;SDS011;8007;51.404;6.304;2023-09-18T11:16:53;2.72;;;1.85;;
15812;SDS011;8007;51.404;6.304;2023-09-18T11:19:05;5.28;;;2.20;;
15812;SDS011;8007;51.404;6.304;2023-09-18T11:21:12;2.60;;;2.03;;
15812;SDS011;8007;51.404;6.304;2023-09-18T11:23:16;5.25;;;2.17;;
15812;SDS011;8007;51.404;6.304;2023-09-18T11:25:28;2.17;;;1.90;;
15812;SDS011;8007;51.404;6.304;2023-09-18T11:27:52;2.97;;;2.00;;
15812;SDS011;8007;51.404;6.304;2023-09-18T11:29:54;4.28;;;2.35;;
15812;SDS011;8007;51.404;6.304;2023-09-18T11:31:58;4.25;;;2.10;;
15812;SDS011;8007;51.404;6.304;2023-09-18T11:34:03;4.30;;;2.10;;
15812;SDS011;8007;51.404;6.304;2023-09-18T11:36:13;2.20;;;1.92;;
15812;SDS011;8007;51.404;6.304;2023-09-18T11:38:17;3.42;;;1.95;;
15812;SDS011;8007;51.404;6.304;2023-09-18T11:40:28;3.85;;;2.35;;
15812;SDS011;8007;51.404;6.304;2023-09-18T11:42:34;5.72;;;1.98;;
15812;SDS011;8007;51.404;6.304;2023-09-18T11:44:36;4.13;;;2.20;;
15812;SDS011;8007;51.404;6.304;2023-09-18T11:46:47;3.25;;;2.00;;
15812;SDS011;8007;51.404;6.304;2023-09-18T11:48:51;2.38;;;2.00;;
15812;SDS011;8007;51.404;6.304;2023-09-18T11:50:55;3.67;;;1.90;;
15812;SDS011;8007;51.404;6.304;2023-09-18T11:52:57;3.42;;;1.95;;
15812;SDS011;8007;51.404;6.304;2023-09-18T11:55:00;1.90;;;1.70;;
15812;SDS011;8007;51.404;6.304;2023-09-18T11:57:03;4.53;;;1.90;;
15812;SDS011;8007;51.404;6.304;2023-09-18T11:59:05;2.20;;;1.88;;
15812;SDS011;8007;51.404;6.304;2023-09-18T12:01:10;3.90;;;1.90;;
15812;SDS011;8007;51.404;6.304;2023-09-18T12:03:13;3.30;;;2.00;;
15812;SDS011;8007;51.404;6.304;2023-09-18T12:05:19;2.83;;;1.80;;
15812;SDS011;8007;51.404;6.304;2023-09-18T12:07:26;2.70;;;2.00;;
15812;SDS011;8007;51.404;6.304;2023-09-18T12:09:28;3.55;;;1.92;;
15812;SDS011;8007;51.404;6.304;2023-09-18T12:11:32;4.40;;;2.00;;
15812;SDS011;8007;51.404;6.304;2023-09-18T12:13:35;5.00;;;1.90;;
15812;SDS011;8007;51.404;6.304;2023-09-18T12:15:38;2.38;;;1.73;;
15812;SDS011;8007;51.404;6.304;2023-09-18T12:17:40;2.10;;;1.88;;
15812;SDS011;8007;51.404;6.304;2023-09-18T12:19:50;4.15;;;1.70;;
15812;SDS011;8007;51.404;6.304;2023-09-18T12:21:54;5.47;;;2.20;;
15812;SDS011;8007;51.404;6.304;2023-09-18T12:23:57;5.78;;;3.00;;
15812;SDS011;8007;51.404;6.304;2023-09-18T12:25:59;4.32;;;1.77;;
15812;SDS011;8007;51.404;6.304;2023-09-18T12:28:05;3.35;;;2.00;;
15812;SDS011;8007;51.404;6.304;2023-09-18T12:30:08;2.70;;;2.00;;
15812;SDS011;8007;51.404;6.304;2023-09-18T12:32:11;5.78;;;2.65;;